sensor_id;sensor_type;location;lat;lon;timestamp;P1;durP1;ratioP1;P2;durP2;ratioP2
60318;SDS011;46163;52.306;5.634;2023-08-12T00:01:49;4.75;;;2.70;;
60318;SDS011;46163;52.306;5.634;2023-08-12T00:04:15;3.67;;;2.67;;
60318;SDS011;46163;52.306;5.634;2023-08-12T00:06:41;4.35;;;2.92;;
60318;SDS011;46163;52.306;5.634;2023-08-12T00:09:07;4.88;;;2.55;;
60318;SDS011;46163;52.306;5.634;2023-08-12T00:11:34;7.25;;;3.15;;
60318;SDS011;46163;52.306;5.634;2023-08-12T00:14:00;3.40;;;2.87;;
60318;SDS011;46163;52.306;5.634;2023-08-12T00:16:26;4.97;;;2.88;;
60318;SDS011;46163;52.306;5.634;2023-08-12T00:18:51;2.97;;;2.50;;
60318;SDS011;46163;52.306;5.634;2023-08-12T00:21:17;6.28;;;3.10;;
60318;SDS011;46163;52.306;5.634;2023-08-12T00:23:42;5.70;;;3.17;;
60318;SDS011;46163;52.306;5.634;2023-08-12T00:26:09;4.18;;;3.10;;
60318;SDS011;46163;52.306;5.634;2023-08-12T00:28:35;5.38;;;2.97;;
60318;SDS011;46163;52.306;5.634;2023-08-12T00:31:01;3.58;;;2.88;;
60318;SDS011;46163;52.306;5.634;2023-08-12T00:33:27;4.20;;;2.90;;
60318;SDS011;46163;52.306;5.634;2023-08-12T00:35:52;4.60;;;2.88;;
60318;SDS011;46163;52.306;5.634;2023-08-12T00:38:18;3.80;;;2.60;;
60318;SDS011;46163;52.306;5.634;2023-08-12T00:40:43;4.25;;;2.60;;
60318;SDS011;46163;52.306;5.634;2023-08-12T00:43:09;4.22;;;2.80;;
60318;SDS011;46163;52.306;5.634;2023-08-12T00:45:34;3.47;;;2.45;;
60318;SDS011;46163;52.306;5.634;2023-08-12T00:48:00;4.78;;;2.70;;
60318;SDS011;46163;52.306;5.634;2023-08-12T00:50:26;3.05;;;2.72;;
60318;SDS011;46163;52.306;5.634;2023-08-12T00:52:51;3.40;;;2.88;;
60318;SDS011;46163;52.306;5.634;2023-08-12T00:55:17;3.47;;;2.75;;
60318;SDS011;46163;52.306;5.634;2023-08-12T00:57:43;4.45;;;2.92;;
60318;SDS011;46163;52.306;5.634;2023-08-12T01:00:09;3.97;;;2.97;;
60318;SDS011;46163;52.306;5.634;2023-08-12T01:02:35;6.43;;;3.10;;
60318;SDS011;46163;52.306;5.634;2023-08-12T01:05:00;4.90;;;3.10;;
60318;SDS011;46163;52.306;5.634;2023-08-12T01:07:28;4.70;;;2.60;;
60318;SDS011;46163;52.306;5.634;2023-08-12T01:09:53;3.38;;;2.92;;
60318;SDS011;46163;52.306;5.634;2023-08-12T01:12:32;4.63;;;3.15;;
60318;SDS011;46163;52.306;5.634;2023-08-12T01:15:02;4.13;;;3.38;;
60318;SDS011;46163;52.306;5.634;2023-08-12T01:17:33;5.18;;;3.35;;
60318;SDS011;46163;52.306;5.634;2023-08-12T01:20:01;6.07;;;3.08;;
60318;SDS011;46163;52.306;5.634;2023-08-12T01:22:40;5.70;;;3.00;;
60318;SDS011;46163;52.306;5.634;2023-08-12T01:25:06;10.63;;;3.30;;
60318;SDS011;46163;52.306;5.634;2023-08-12T01:27:34;4.65;;;3.30;;
60318;SDS011;46163;52.306;5.634;2023-08-12T01:30:00;3.97;;;2.90;;
60318;SDS011;46163;52.306;5.634;2023-08-12T01:32:32;3.72;;;3.33;;
60318;SDS011;46163;52.306;5.634;2023-08-12T01:37:30;4.65;;;3.20;;
60318;SDS011;46163;52.306;5.634;2023-08-12T01:39:59;4.15;;;3.40;;
60318;SDS011;46163;52.306;5.634;2023-08-12T01:42:29;6.60;;;3.40;;
60318;SDS011;46163;52.306;5.634;2023-08-12T01:44:55;5.13;;;3.75;;
60318;SDS011;46163;52.306;5.634;2023-08-12T01:47:21;7.68;;;3.72;;
60318;SDS011;46163;52.306;5.634;2023-08-12T01:49:46;4.38;;;3.33;;
60318;SDS011;46163;52.306;5.634;2023-08-12T01:52:12;5.90;;;3.92;;
60318;SDS011;46163;52.306;5.634;2023-08-12T01:54:37;4.90;;;3.35;;
60318;SDS011;46163;52.306;5.634;2023-08-12T01:57:05;8.23;;;4.30;;
60318;SDS011;46163;52.306;5.634;2023-08-12T01:59:32;5.25;;;3.63;;
60318;SDS011;46163;52.306;5.634;2023-08-12T02:01:57;5.72;;;3.97;;
60318;SDS011;46163;52.306;5.634;2023-08-12T02:04:26;5.50;;;4.00;;
60318;SDS011;46163;52.306;5.634;2023-08-12T02:06:55;6.82;;;3.45;;
60318;SDS011;46163;52.306;5.634;2023-08-12T02:09:20;4.90;;;3.90;;
60318;SDS011;46163;52.306;5.634;2023-08-12T02:11:47;5.20;;;3.67;;
60318;SDS011;46163;52.306;5.634;2023-08-12T02:14:13;4.63;;;3.80;;
60318;SDS011;46163;52.306;5.634;2023-08-12T02:16:41;6.65;;;4.97;;
60318;SDS011;46163;52.306;5.634;2023-08-12T02:19:07;8.10;;;5.35;;
60318;SDS011;46163;52.306;5.634;2023-08-12T02:21:34;7.35;;;4.68;;
60318;SDS011;46163;52.306;5.634;2023-08-12T02:24:00;8.15;;;4.53;;
60318;SDS011;46163;52.306;5.634;2023-08-12T02:26:28;7.32;;;4.05;;
60318;SDS011;46163;52.306;5.634;2023-08-12T02:31:19;5.65;;;3.40;;
60318;SDS011;46163;52.306;5.634;2023-08-12T02:33:44;8.13;;;4.50;;
60318;SDS011;46163;52.306;5.634;2023-08-12T02:36:09;6.15;;;3.78;;
60318;SDS011;46163;52.306;5.634;2023-08-12T02:38:35;6.93;;;3.83;;
60318;SDS011;46163;52.306;5.634;2023-08-12T02:41:00;6.03;;;3.65;;
60318;SDS011;46163;52.306;5.634;2023-08-12T02:43:26;7.10;;;4.20;;
60318;SDS011;46163;52.306;5.634;2023-08-12T02:45:51;6.65;;;4.40;;
60318;SDS011;46163;52.306;5.634;2023-08-12T02:48:17;6.70;;;3.80;;
60318;SDS011;46163;52.306;5.634;2023-08-12T02:50:45;6.80;;;4.45;;
60318;SDS011;46163;52.306;5.634;2023-08-12T02:53:10;8.57;;;4.10;;
60318;SDS011;46163;52.306;5.634;2023-08-12T02:55:36;9.10;;;5.35;;
60318;SDS011;46163;52.306;5.634;2023-08-12T02:58:02;5.65;;;4.28;;
60318;SDS011;46163;52.306;5.634;2023-08-12T03:00:28;7.30;;;4.35;;
60318;SDS011;46163;52.306;5.634;2023-08-12T03:02:56;5.30;;;3.60;;
60318;SDS011;46163;52.306;5.634;2023-08-12T03:05:22;8.73;;;4.80;;
60318;SDS011;46163;52.306;5.634;2023-08-12T03:07:48;11.38;;;5.97;;
60318;SDS011;46163;52.306;5.634;2023-08-12T03:10:13;7.43;;;4.65;;
60318;SDS011;46163;52.306;5.634;2023-08-12T03:12:38;8.00;;;5.60;;
60318;SDS011;46163;52.306;5.634;2023-08-12T03:15:05;9.02;;;5.82;;
60318;SDS011;46163;52.306;5.634;2023-08-12T03:17:32;7.88;;;5.10;;
60318;SDS011;46163;52.306;5.634;2023-08-12T03:19:58;7.95;;;6.30;;
60318;SDS011;46163;52.306;5.634;2023-08-12T03:22:24;6.97;;;6.28;;
60318;SDS011;46163;52.306;5.634;2023-08-12T03:24:50;6.78;;;5.93;;
60318;SDS011;46163;52.306;5.634;2023-08-12T03:27:16;17.58;;;7.15;;
60318;SDS011;46163;52.306;5.634;2023-08-12T03:29:44;9.85;;;7.32;;
60318;SDS011;46163;52.306;5.634;2023-08-12T03:34:34;12.02;;;7.30;;
60318;SDS011;46163;52.306;5.634;2023-08-12T03:37:00;11.02;;;6.85;;
60318;SDS011;46163;52.306;5.634;2023-08-12T03:39:25;9.98;;;6.90;;
60318;SDS011;46163;52.306;5.634;2023-08-12T03:41:51;12.50;;;8.23;;
60318;SDS011;46163;52.306;5.634;2023-08-12T03:44:17;11.10;;;7.28;;
60318;SDS011;46163;52.306;5.634;2023-08-12T03:46:43;8.40;;;7.28;;
60318;SDS011;46163;52.306;5.634;2023-08-12T03:49:08;9.05;;;7.70;;
60318;SDS011;46163;52.306;5.634;2023-08-12T03:51:34;12.32;;;8.57;;
60318;SDS011;46163;52.306;5.634;2023-08-12T03:53:59;11.85;;;8.88;;
60318;SDS011;46163;52.306;5.634;2023-08-12T03:56:25;11.55;;;8.00;;
60318;SDS011;46163;52.306;5.634;2023-08-12T03:58:51;8.70;;;7.38;;
60318;SDS011;46163;52.306;5.634;2023-08-12T04:01:16;10.13;;;7.90;;
60318;SDS011;46163;52.306;5.634;2023-08-12T04:03:42;10.98;;;7.90;;
60318;SDS011;46163;52.306;5.634;2023-08-12T04:06:08;10.55;;;7.72;;
60318;SDS011;46163;52.306;5.634;2023-08-12T04:08:33;12.27;;;8.52;;
60318;SDS011;46163;52.306;5.634;2023-08-12T04:10:59;10.60;;;7.72;;
60318;SDS011;46163;52.306;5.634;2023-08-12T04:13:25;10.90;;;7.80;;
60318;SDS011;46163;52.306;5.634;2023-08-12T04:15:50;12.52;;;8.25;;
60318;SDS011;46163;52.306;5.634;2023-08-12T04:18:18;11.90;;;8.20;;
60318;SDS011;46163;52.306;5.634;2023-08-12T04:20:45;9.25;;;7.82;;
60318;SDS011;46163;52.306;5.634;2023-08-12T04:23:12;12.13;;;7.55;;
60318;SDS011;46163;52.306;5.634;2023-08-12T04:25:38;9.82;;;8.30;;
60318;SDS011;46163;52.306;5.634;2023-08-12T04:28:03;12.18;;;8.40;;
60318;SDS011;46163;52.306;5.634;2023-08-12T04:30:29;10.77;;;8.10;;
60318;SDS011;46163;52.306;5.634;2023-08-12T04:32:55;9.70;;;7.82;;
60318;SDS011;46163;52.306;5.634;2023-08-12T04:35:20;10.35;;;8.02;;
60318;SDS011;46163;52.306;5.634;2023-08-12T04:37:45;16.92;;;8.35;;
60318;SDS011;46163;52.306;5.634;2023-08-12T04:40:11;10.57;;;8.32;;
60318;SDS011;46163;52.306;5.634;2023-08-12T04:42:36;11.40;;;7.22;;
60318;SDS011;46163;52.306;5.634;2023-08-12T04:45:02;10.90;;;7.90;;
60318;SDS011;46163;52.306;5.634;2023-08-12T04:47:28;10.35;;;8.15;;
60318;SDS011;46163;52.306;5.634;2023-08-12T04:49:54;11.32;;;8.68;;
60318;SDS011;46163;52.306;5.634;2023-08-12T04:52:20;13.18;;;8.70;;
60318;SDS011;46163;52.306;5.634;2023-08-12T04:54:45;12.57;;;10.23;;
60318;SDS011;46163;52.306;5.634;2023-08-12T04:57:11;13.10;;;8.82;;
60318;SDS011;46163;52.306;5.634;2023-08-12T04:59:37;15.18;;;9.73;;
60318;SDS011;46163;52.306;5.634;2023-08-12T05:02:03;13.82;;;10.02;;
60318;SDS011;46163;52.306;5.634;2023-08-12T05:04:28;11.93;;;8.98;;
60318;SDS011;46163;52.306;5.634;2023-08-12T05:06:54;18.17;;;9.20;;
60318;SDS011;46163;52.306;5.634;2023-08-12T05:09:20;12.50;;;8.73;;
60318;SDS011;46163;52.306;5.634;2023-08-12T05:11:45;11.73;;;8.38;;
60318;SDS011;46163;52.306;5.634;2023-08-12T05:14:10;13.57;;;8.80;;
60318;SDS011;46163;52.306;5.634;2023-08-12T05:16:36;11.35;;;9.20;;
60318;SDS011;46163;52.306;5.634;2023-08-12T05:19:02;14.30;;;9.80;;
60318;SDS011;46163;52.306;5.634;2023-08-12T05:21:27;10.95;;;8.35;;
60318;SDS011;46163;52.306;5.634;2023-08-12T05:23:53;11.73;;;8.40;;
60318;SDS011;46163;52.306;5.634;2023-08-12T05:26:21;14.55;;;9.32;;
60318;SDS011;46163;52.306;5.634;2023-08-12T05:28:46;12.85;;;8.95;;
60318;SDS011;46163;52.306;5.634;2023-08-12T05:31:12;12.57;;;8.38;;
60318;SDS011;46163;52.306;5.634;2023-08-12T05:33:38;9.43;;;8.18;;
60318;SDS011;46163;52.306;5.634;2023-08-12T05:36:03;10.52;;;8.02;;
60318;SDS011;46163;52.306;5.634;2023-08-12T05:38:29;14.35;;;9.07;;
60318;SDS011;46163;52.306;5.634;2023-08-12T05:40:54;13.60;;;8.57;;
60318;SDS011;46163;52.306;5.634;2023-08-12T05:43:20;9.75;;;8.13;;
60318;SDS011;46163;52.306;5.634;2023-08-12T05:45:45;11.77;;;8.45;;
60318;SDS011;46163;52.306;5.634;2023-08-12T05:48:12;10.57;;;8.25;;
60318;SDS011;46163;52.306;5.634;2023-08-12T05:50:38;10.55;;;7.97;;
60318;SDS011;46163;52.306;5.634;2023-08-12T05:53:03;8.50;;;7.60;;
60318;SDS011;46163;52.306;5.634;2023-08-12T05:55:29;9.98;;;8.77;;
60318;SDS011;46163;52.306;5.634;2023-08-12T05:57:55;11.02;;;8.57;;
60318;SDS011;46163;52.306;5.634;2023-08-12T06:00:20;13.35;;;9.00;;
60318;SDS011;46163;52.306;5.634;2023-08-12T06:02:46;13.52;;;8.35;;
60318;SDS011;46163;52.306;5.634;2023-08-12T06:05:11;14.63;;;8.48;;
60318;SDS011;46163;52.306;5.634;2023-08-12T06:07:37;10.70;;;8.10;;
60318;SDS011;46163;52.306;5.634;2023-08-12T06:10:02;8.68;;;7.80;;
60318;SDS011;46163;52.306;5.634;2023-08-12T06:12:28;9.63;;;8.20;;
60318;SDS011;46163;52.306;5.634;2023-08-12T06:14:54;12.15;;;8.25;;
60318;SDS011;46163;52.306;5.634;2023-08-12T06:17:19;12.13;;;8.60;;
60318;SDS011;46163;52.306;5.634;2023-08-12T06:19:45;11.77;;;8.20;;
60318;SDS011;46163;52.306;5.634;2023-08-12T06:22:11;14.82;;;9.00;;
60318;SDS011;46163;52.306;5.634;2023-08-12T06:24:36;11.00;;;8.30;;
60318;SDS011;46163;52.306;5.634;2023-08-12T06:27:02;11.43;;;8.35;;
60318;SDS011;46163;52.306;5.634;2023-08-12T06:29:27;11.48;;;8.95;;
60318;SDS011;46163;52.306;5.634;2023-08-12T06:31:53;9.93;;;8.68;;
60318;SDS011;46163;52.306;5.634;2023-08-12T06:34:19;10.75;;;8.73;;
60318;SDS011;46163;52.306;5.634;2023-08-12T06:36:44;9.50;;;8.50;;
60318;SDS011;46163;52.306;5.634;2023-08-12T06:39:10;16.98;;;9.10;;
60318;SDS011;46163;52.306;5.634;2023-08-12T06:41:38;11.50;;;9.10;;
60318;SDS011;46163;52.306;5.634;2023-08-12T06:44:04;13.73;;;9.95;;
60318;SDS011;46163;52.306;5.634;2023-08-12T06:46:29;12.35;;;8.77;;
60318;SDS011;46163;52.306;5.634;2023-08-12T06:48:56;12.73;;;9.50;;
60318;SDS011;46163;52.306;5.634;2023-08-12T06:51:23;14.80;;;8.90;;
60318;SDS011;46163;52.306;5.634;2023-08-12T06:53:48;11.80;;;8.82;;
60318;SDS011;46163;52.306;5.634;2023-08-12T06:56:14;9.65;;;8.65;;
60318;SDS011;46163;52.306;5.634;2023-08-12T06:58:39;15.93;;;9.05;;
60318;SDS011;46163;52.306;5.634;2023-08-12T07:01:05;11.45;;;8.00;;
60318;SDS011;46163;52.306;5.634;2023-08-12T07:03:30;10.10;;;7.63;;
60318;SDS011;46163;52.306;5.634;2023-08-12T07:05:56;11.07;;;7.50;;
60318;SDS011;46163;52.306;5.634;2023-08-12T07:08:21;11.93;;;6.90;;
60318;SDS011;46163;52.306;5.634;2023-08-12T07:10:47;10.73;;;6.32;;
60318;SDS011;46163;52.306;5.634;2023-08-12T07:13:13;10.43;;;7.65;;
60318;SDS011;46163;52.306;5.634;2023-08-12T07:15:40;9.18;;;6.45;;
60318;SDS011;46163;52.306;5.634;2023-08-12T07:18:06;9.63;;;6.40;;
60318;SDS011;46163;52.306;5.634;2023-08-12T07:20:31;10.23;;;5.78;;
60318;SDS011;46163;52.306;5.634;2023-08-12T07:22:57;9.15;;;5.13;;
60318;SDS011;46163;52.306;5.634;2023-08-12T07:25:22;6.15;;;4.22;;
60318;SDS011;46163;52.306;5.634;2023-08-12T07:27:48;6.30;;;4.60;;
60318;SDS011;46163;52.306;5.634;2023-08-12T07:30:13;6.05;;;4.13;;
60318;SDS011;46163;52.306;5.634;2023-08-12T07:32:39;3.47;;;3.17;;
60318;SDS011;46163;52.306;5.634;2023-08-12T07:35:06;6.55;;;4.43;;
60318;SDS011;46163;52.306;5.634;2023-08-12T07:37:34;5.18;;;3.65;;
60318;SDS011;46163;52.306;5.634;2023-08-12T07:40:00;7.50;;;3.60;;
60318;SDS011;46163;52.306;5.634;2023-08-12T07:42:25;5.43;;;2.67;;
60318;SDS011;46163;52.306;5.634;2023-08-12T07:44:51;3.20;;;2.90;;
60318;SDS011;46163;52.306;5.634;2023-08-12T07:47:16;3.28;;;2.90;;
60318;SDS011;46163;52.306;5.634;2023-08-12T07:49:42;4.18;;;3.03;;
60318;SDS011;46163;52.306;5.634;2023-08-12T07:52:08;4.82;;;3.78;;
60318;SDS011;46163;52.306;5.634;2023-08-12T07:54:34;3.67;;;2.75;;
60318;SDS011;46163;52.306;5.634;2023-08-12T07:56:59;4.78;;;2.78;;
60318;SDS011;46163;52.306;5.634;2023-08-12T07:59:27;2.72;;;2.15;;
60318;SDS011;46163;52.306;5.634;2023-08-12T08:01:53;2.85;;;2.55;;
60318;SDS011;46163;52.306;5.634;2023-08-12T08:04:18;4.55;;;3.30;;
60318;SDS011;46163;52.306;5.634;2023-08-12T08:06:44;3.85;;;3.00;;
60318;SDS011;46163;52.306;5.634;2023-08-12T08:09:09;2.50;;;2.30;;
60318;SDS011;46163;52.306;5.634;2023-08-12T08:11:35;3.10;;;2.40;;
60318;SDS011;46163;52.306;5.634;2023-08-12T08:14:01;3.20;;;2.20;;
60318;SDS011;46163;52.306;5.634;2023-08-12T08:16:27;3.30;;;2.50;;
60318;SDS011;46163;52.306;5.634;2023-08-12T08:18:52;2.33;;;1.98;;
60318;SDS011;46163;52.306;5.634;2023-08-12T08:21:17;2.42;;;2.22;;
60318;SDS011;46163;52.306;5.634;2023-08-12T08:23:45;2.60;;;2.28;;
60318;SDS011;46163;52.306;5.634;2023-08-12T08:26:11;2.67;;;2.20;;
60318;SDS011;46163;52.306;5.634;2023-08-12T08:28:40;2.92;;;2.45;;
60318;SDS011;46163;52.306;5.634;2023-08-12T08:31:06;2.10;;;1.90;;
60318;SDS011;46163;52.306;5.634;2023-08-12T08:33:31;3.13;;;2.42;;
60318;SDS011;46163;52.306;5.634;2023-08-12T08:35:57;2.53;;;2.33;;
60318;SDS011;46163;52.306;5.634;2023-08-12T08:38:23;2.75;;;2.28;;
60318;SDS011;46163;52.306;5.634;2023-08-12T08:40:50;8.50;;;2.35;;
60318;SDS011;46163;52.306;5.634;2023-08-12T08:43:18;2.30;;;2.10;;
60318;SDS011;46163;52.306;5.634;2023-08-12T08:45:48;2.75;;;2.35;;
60318;SDS011;46163;52.306;5.634;2023-08-12T08:48:17;2.72;;;2.17;;
60318;SDS011;46163;52.306;5.634;2023-08-12T08:50:44;4.30;;;2.22;;
60318;SDS011;46163;52.306;5.634;2023-08-12T08:53:11;2.35;;;2.15;;
60318;SDS011;46163;52.306;5.634;2023-08-12T08:55:39;4.32;;;2.55;;
60318;SDS011;46163;52.306;5.634;2023-08-12T08:58:06;2.17;;;1.98;;
60318;SDS011;46163;52.306;5.634;2023-08-12T09:00:31;2.33;;;1.88;;
60318;SDS011;46163;52.306;5.634;2023-08-12T09:02:57;2.25;;;2.05;;
60318;SDS011;46163;52.306;5.634;2023-08-12T09:05:23;2.08;;;1.98;;
60318;SDS011;46163;52.306;5.634;2023-08-12T09:07:49;2.10;;;2.00;;
60318;SDS011;46163;52.306;5.634;2023-08-12T09:10:17;2.72;;;2.22;;
60318;SDS011;46163;52.306;5.634;2023-08-12T09:12:45;2.13;;;1.98;;
60318;SDS011;46163;52.306;5.634;2023-08-12T09:15:11;2.30;;;2.10;;
60318;SDS011;46163;52.306;5.634;2023-08-12T09:17:37;2.50;;;2.22;;
60318;SDS011;46163;52.306;5.634;2023-08-12T09:20:04;2.40;;;2.20;;
60318;SDS011;46163;52.306;5.634;2023-08-12T09:22:37;2.28;;;2.00;;
60318;SDS011;46163;52.306;5.634;2023-08-12T09:25:03;2.13;;;1.92;;
60318;SDS011;46163;52.306;5.634;2023-08-12T09:27:32;1.75;;;1.65;;
60318;SDS011;46163;52.306;5.634;2023-08-12T09:29:58;1.60;;;1.50;;
60318;SDS011;46163;52.306;5.634;2023-08-12T09:32:24;1.60;;;1.50;;
60318;SDS011;46163;52.306;5.634;2023-08-12T09:34:50;1.20;;;1.20;;
60318;SDS011;46163;52.306;5.634;2023-08-12T09:37:18;1.30;;;1.20;;
60318;SDS011;46163;52.306;5.634;2023-08-12T09:39:44;1.10;;;1.10;;
60318;SDS011;46163;52.306;5.634;2023-08-12T09:42:13;1.25;;;1.25;;
60318;SDS011;46163;52.306;5.634;2023-08-12T09:44:38;1.20;;;1.20;;
60318;SDS011;46163;52.306;5.634;2023-08-12T09:47:08;1.20;;;1.20;;
60318;SDS011;46163;52.306;5.634;2023-08-12T09:49:37;3.17;;;1.17;;
60318;SDS011;46163;52.306;5.634;2023-08-12T09:52:04;1.33;;;1.20;;
60318;SDS011;46163;52.306;5.634;2023-08-12T09:54:36;2.63;;;1.30;;
60318;SDS011;46163;52.306;5.634;2023-08-12T09:57:02;1.40;;;1.30;;
60318;SDS011;46163;52.306;5.634;2023-08-12T09:59:31;1.35;;;1.30;;
60318;SDS011;46163;52.306;5.634;2023-08-12T10:01:59;1.10;;;1.00;;
60318;SDS011;46163;52.306;5.634;2023-08-12T10:04:33;1.27;;;1.17;;
60318;SDS011;46163;52.306;5.634;2023-08-12T10:07:07;3.50;;;1.10;;
60318;SDS011;46163;52.306;5.634;2023-08-12T10:09:33;2.08;;;1.30;;
60318;SDS011;46163;52.306;5.634;2023-08-12T10:12:00;1.85;;;1.20;;
60318;SDS011;46163;52.306;5.634;2023-08-12T10:14:27;1.50;;;1.40;;
60318;SDS011;46163;52.306;5.634;2023-08-12T10:16:56;1.23;;;1.20;;
60318;SDS011;46163;52.306;5.634;2023-08-12T10:19:23;4.60;;;1.50;;
60318;SDS011;46163;52.306;5.634;2023-08-12T10:21:50;2.67;;;1.77;;
60318;SDS011;46163;52.306;5.634;2023-08-12T10:24:24;3.97;;;1.75;;
60318;SDS011;46163;52.306;5.634;2023-08-12T10:26:51;5.22;;;1.95;;
60318;SDS011;46163;52.306;5.634;2023-08-12T10:29:18;3.00;;;1.70;;
60318;SDS011;46163;52.306;5.634;2023-08-12T10:31:53;2.97;;;1.75;;
60318;SDS011;46163;52.306;5.634;2023-08-12T10:34:22;4.30;;;1.80;;
60318;SDS011;46163;52.306;5.634;2023-08-12T10:36:53;4.03;;;1.90;;
60318;SDS011;46163;52.306;5.634;2023-08-12T10:39:25;1.88;;;1.70;;
60318;SDS011;46163;52.306;5.634;2023-08-12T10:41:52;2.45;;;1.85;;
60318;SDS011;46163;52.306;5.634;2023-08-12T10:44:20;3.33;;;1.63;;
60318;SDS011;46163;52.306;5.634;2023-08-12T10:46:51;3.07;;;2.00;;
60318;SDS011;46163;52.306;5.634;2023-08-12T10:49:18;5.43;;;2.53;;
60318;SDS011;46163;52.306;5.634;2023-08-12T11:04:41;5.00;;;1.70;;
60318;SDS011;46163;52.306;5.634;2023-08-12T11:07:17;5.47;;;2.28;;
60318;SDS011;46163;52.306;5.634;2023-08-12T11:09:44;6.30;;;1.80;;
60318;SDS011;46163;52.306;5.634;2023-08-12T11:12:11;5.53;;;2.10;;
60318;SDS011;46163;52.306;5.634;2023-08-12T11:14:51;4.45;;;2.10;;
60318;SDS011;46163;52.306;5.634;2023-08-12T11:17:18;2.13;;;1.77;;
60318;SDS011;46163;52.306;5.634;2023-08-12T11:19:44;3.40;;;1.60;;
60318;SDS011;46163;52.306;5.634;2023-08-12T11:22:09;3.72;;;1.90;;
60318;SDS011;46163;52.306;5.634;2023-08-12T11:24:38;3.92;;;1.73;;
60318;SDS011;46163;52.306;5.634;2023-08-12T11:27:06;3.42;;;1.60;;
60318;SDS011;46163;52.306;5.634;2023-08-12T11:29:34;3.67;;;2.10;;
60318;SDS011;46163;52.306;5.634;2023-08-12T11:31:59;4.00;;;1.88;;
60318;SDS011;46163;52.306;5.634;2023-08-12T11:34:25;3.08;;;1.70;;
60318;SDS011;46163;52.306;5.634;2023-08-12T11:36:50;3.67;;;2.03;;
60318;SDS011;46163;52.306;5.634;2023-08-12T11:39:16;5.43;;;2.25;;
60318;SDS011;46163;52.306;5.634;2023-08-12T11:41:42;4.20;;;1.63;;
60318;SDS011;46163;52.306;5.634;2023-08-12T11:44:11;3.42;;;1.83;;
60318;SDS011;46163;52.306;5.634;2023-08-12T11:46:40;3.90;;;1.88;;
60318;SDS011;46163;52.306;5.634;2023-08-12T11:49:05;4.00;;;1.92;;
60318;SDS011;46163;52.306;5.634;2023-08-12T11:51:31;3.83;;;1.70;;
60318;SDS011;46163;52.306;5.634;2023-08-12T11:53:57;2.05;;;1.77;;
60318;SDS011;46163;52.306;5.634;2023-08-12T11:56:23;4.93;;;1.80;;
60318;SDS011;46163;52.306;5.634;2023-08-12T11:58:52;5.93;;;1.63;;
60318;SDS011;46163;52.306;5.634;2023-08-12T12:01:21;3.38;;;2.10;;
60318;SDS011;46163;52.306;5.634;2023-08-12T12:06:17;4.97;;;1.75;;
60318;SDS011;46163;52.306;5.634;2023-08-12T12:08:45;3.85;;;1.95;;
60318;SDS011;46163;52.306;5.634;2023-08-12T12:11:13;4.88;;;1.98;;
60318;SDS011;46163;52.306;5.634;2023-08-12T12:13:39;5.33;;;1.53;;
60318;SDS011;46163;52.306;5.634;2023-08-12T12:16:09;5.30;;;2.10;;
60318;SDS011;46163;52.306;5.634;2023-08-12T12:18:35;5.88;;;2.03;;
60318;SDS011;46163;52.306;5.634;2023-08-12T12:21:01;3.08;;;1.50;;
60318;SDS011;46163;52.306;5.634;2023-08-12T12:23:27;3.28;;;1.52;;
60318;SDS011;46163;52.306;5.634;2023-08-12T12:25:58;8.45;;;1.90;;
60318;SDS011;46163;52.306;5.634;2023-08-12T12:28:24;5.22;;;1.95;;
60318;SDS011;46163;52.306;5.634;2023-08-12T12:30:50;4.20;;;1.70;;
60318;SDS011;46163;52.306;5.634;2023-08-12T12:33:15;4.95;;;2.08;;
60318;SDS011;46163;52.306;5.634;2023-08-12T12:35:40;3.80;;;1.70;;
60318;SDS011;46163;52.306;5.634;2023-08-12T12:38:06;5.00;;;1.83;;
60318;SDS011;46163;52.306;5.634;2023-08-12T12:40:32;1.73;;;1.50;;
60318;SDS011;46163;52.306;5.634;2023-08-12T12:42:57;2.97;;;1.45;;
60318;SDS011;46163;52.306;5.634;2023-08-12T12:45:24;5.13;;;2.35;;
60318;SDS011;46163;52.306;5.634;2023-08-12T12:47:49;3.92;;;1.70;;
60318;SDS011;46163;52.306;5.634;2023-08-12T12:50:14;3.35;;;1.73;;
60318;SDS011;46163;52.306;5.634;2023-08-12T12:52:41;4.37;;;1.70;;
60318;SDS011;46163;52.306;5.634;2023-08-12T12:55:07;3.72;;;1.67;;
60318;SDS011;46163;52.306;5.634;2023-08-12T12:57:33;2.83;;;1.65;;
60318;SDS011;46163;52.306;5.634;2023-08-12T12:59:59;4.95;;;1.80;;
60318;SDS011;46163;52.306;5.634;2023-08-12T13:02:25;5.15;;;1.67;;
60318;SDS011;46163;52.306;5.634;2023-08-12T13:04:52;3.15;;;1.77;;
60318;SDS011;46163;52.306;5.634;2023-08-12T13:07:17;6.03;;;2.13;;
60318;SDS011;46163;52.306;5.634;2023-08-12T13:09:43;7.63;;;2.00;;
60318;SDS011;46163;52.306;5.634;2023-08-12T13:12:13;6.00;;;1.80;;
60318;SDS011;46163;52.306;5.634;2023-08-12T13:14:38;10.60;;;1.88;;
60318;SDS011;46163;52.306;5.634;2023-08-12T13:17:06;7.85;;;1.95;;
60318;SDS011;46163;52.306;5.634;2023-08-12T13:19:37;4.15;;;2.05;;
60318;SDS011;46163;52.306;5.634;2023-08-12T13:22:02;2.38;;;1.52;;
60318;SDS011;46163;52.306;5.634;2023-08-12T13:24:28;4.32;;;1.90;;
60318;SDS011;46163;52.306;5.634;2023-08-12T13:26:53;3.25;;;1.67;;
60318;SDS011;46163;52.306;5.634;2023-08-12T13:29:19;4.43;;;2.00;;
60318;SDS011;46163;52.306;5.634;2023-08-12T13:31:45;4.78;;;1.55;;
60318;SDS011;46163;52.306;5.634;2023-08-12T13:34:10;4.80;;;1.80;;
60318;SDS011;46163;52.306;5.634;2023-08-12T13:36:36;5.43;;;1.70;;
60318;SDS011;46163;52.306;5.634;2023-08-12T13:39:04;6.32;;;2.10;;
60318;SDS011;46163;52.306;5.634;2023-08-12T13:41:30;3.78;;;1.88;;
60318;SDS011;46163;52.306;5.634;2023-08-12T13:46:23;4.97;;;2.10;;
60318;SDS011;46163;52.306;5.634;2023-08-12T13:48:49;4.55;;;1.83;;
60318;SDS011;46163;52.306;5.634;2023-08-12T13:51:14;3.08;;;1.90;;
60318;SDS011;46163;52.306;5.634;2023-08-12T13:53:42;3.25;;;1.67;;
60318;SDS011;46163;52.306;5.634;2023-08-12T13:56:08;3.00;;;1.88;;
60318;SDS011;46163;52.306;5.634;2023-08-12T13:58:33;3.92;;;2.00;;
60318;SDS011;46163;52.306;5.634;2023-08-12T14:00:59;5.72;;;1.92;;
60318;SDS011;46163;52.306;5.634;2023-08-12T14:03:24;6.40;;;2.30;;
60318;SDS011;46163;52.306;5.634;2023-08-12T14:05:49;4.75;;;2.00;;
60318;SDS011;46163;52.306;5.634;2023-08-12T14:08:17;4.50;;;2.03;;
60318;SDS011;46163;52.306;5.634;2023-08-12T14:10:42;4.53;;;1.63;;
60318;SDS011;46163;52.306;5.634;2023-08-12T14:13:10;2.78;;;1.63;;
60318;SDS011;46163;52.306;5.634;2023-08-12T14:15:35;4.10;;;1.63;;
60318;SDS011;46163;52.306;5.634;2023-08-12T14:18:01;7.40;;;2.05;;
60318;SDS011;46163;52.306;5.634;2023-08-12T14:20:26;4.78;;;2.00;;
60318;SDS011;46163;52.306;5.634;2023-08-12T14:22:52;4.40;;;1.98;;
60318;SDS011;46163;52.306;5.634;2023-08-12T14:25:20;3.78;;;1.70;;
60318;SDS011;46163;52.306;5.634;2023-08-12T14:27:45;8.88;;;2.00;;
60318;SDS011;46163;52.306;5.634;2023-08-12T14:30:13;5.22;;;2.05;;
60318;SDS011;46163;52.306;5.634;2023-08-12T14:32:42;5.80;;;2.38;;
60318;SDS011;46163;52.306;5.634;2023-08-12T14:35:10;5.28;;;2.13;;
60318;SDS011;46163;52.306;5.634;2023-08-12T14:37:36;3.70;;;1.73;;
60318;SDS011;46163;52.306;5.634;2023-08-12T14:40:02;5.38;;;1.70;;
60318;SDS011;46163;52.306;5.634;2023-08-12T14:42:28;6.47;;;1.98;;
60318;SDS011;46163;52.306;5.634;2023-08-12T14:47:21;5.35;;;1.70;;
60318;SDS011;46163;52.306;5.634;2023-08-12T14:49:46;4.43;;;2.08;;
60318;SDS011;46163;52.306;5.634;2023-08-12T14:52:18;3.80;;;1.85;;
60318;SDS011;46163;52.306;5.634;2023-08-12T14:54:44;7.22;;;2.03;;
60318;SDS011;46163;52.306;5.634;2023-08-12T14:57:10;5.28;;;1.90;;
60318;SDS011;46163;52.306;5.634;2023-08-12T14:59:36;6.47;;;2.00;;
60318;SDS011;46163;52.306;5.634;2023-08-12T15:02:01;4.60;;;1.95;;
60318;SDS011;46163;52.306;5.634;2023-08-12T15:04:27;3.65;;;1.70;;
60318;SDS011;46163;52.306;5.634;2023-08-12T15:06:52;4.20;;;2.03;;
60318;SDS011;46163;52.306;5.634;2023-08-12T15:09:18;4.15;;;1.67;;